createdAt,value
2019-02-05T00:01:25.319Z,9.00
2019-02-05T00:03:55.459Z,11.00
2019-02-05T00:06:25.324Z,10.90
2019-02-05T00:08:54.911Z,8.80
2019-02-05T00:11:24.625Z,7.60
2019-02-05T00:13:54.300Z,14.30
2019-02-05T00:16:23.887Z,9.20
2019-02-05T00:18:53.477Z,8.90
2019-02-05T00:21:23.091Z,8.97
2019-02-05T00:23:52.659Z,9.50
2019-02-05T00:26:22.282Z,8.00
2019-02-05T00:28:51.923Z,12.47
2019-02-05T00:31:21.504Z,10.33
2019-02-05T00:33:51.170Z,12.20
2019-02-05T00:36:20.777Z,8.17
2019-02-05T00:38:50.381Z,8.17
2019-02-05T00:41:19.971Z,11.40
2019-02-05T00:43:49.567Z,9.00
2019-02-05T00:46:19.151Z,8.70
2019-02-05T00:48:49.463Z,8.20
2019-02-05T00:51:19.053Z,10.53
2019-02-05T00:53:48.663Z,7.83
2019-02-05T00:56:18.275Z,8.63
2019-02-05T00:58:47.881Z,7.93
2019-02-05T01:01:17.889Z,8.80
2019-02-05T01:03:47.842Z,11.20
2019-02-05T01:06:17.577Z,8.87
2019-02-05T01:08:47.180Z,9.70
2019-02-05T01:11:16.755Z,7.73
2019-02-05T01:13:46.348Z,8.30
2019-02-05T01:16:16.006Z,8.20
2019-02-05T01:18:45.613Z,12.47
2019-02-05T01:21:15.265Z,10.70
2019-02-05T01:23:44.873Z,12.40
2019-02-05T01:26:14.462Z,8.53
2019-02-05T01:28:44.103Z,9.97
2019-02-05T01:31:14.176Z,10.77
2019-02-05T01:33:43.810Z,9.07
2019-02-05T01:36:13.475Z,8.70
2019-02-05T01:38:43.164Z,8.50
2019-02-05T01:41:13.125Z,10.40
2019-02-05T01:43:42.753Z,9.47
2019-02-05T01:46:12.696Z,10.37
2019-02-05T01:48:42.295Z,10.17
2019-02-05T01:51:12.027Z,9.27
2019-02-05T01:53:41.639Z,8.40
2019-02-05T01:56:11.232Z,12.30
2019-02-05T01:58:40.815Z,8.97
2019-02-05T02:01:10.488Z,8.73
2019-02-05T02:03:40.855Z,11.87
2019-02-05T02:06:10.775Z,9.37
2019-02-05T02:08:40.463Z,8.30
2019-02-05T02:11:11.202Z,10.57
2019-02-05T02:13:40.839Z,14.07
2019-02-05T02:16:10.601Z,9.17
2019-02-05T02:18:40.514Z,11.20
2019-02-05T02:21:10.270Z,12.60
2019-02-05T02:23:39.937Z,16.43
2019-02-05T02:26:09.679Z,9.20
2019-02-05T02:28:39.955Z,10.47
2019-02-05T02:31:09.563Z,9.13
2019-02-05T02:33:39.522Z,11.40
2019-02-05T02:36:09.280Z,15.90
2019-02-05T02:38:39.982Z,10.50
2019-02-05T02:41:09.595Z,11.03
2019-02-05T02:43:39.700Z,9.00
2019-02-05T02:46:09.277Z,11.57
2019-02-05T02:48:38.910Z,10.13
2019-02-05T02:51:09.844Z,9.60
2019-02-05T02:53:39.452Z,9.37
2019-02-05T02:56:09.107Z,9.33
2019-02-05T02:58:38.733Z,9.40
2019-02-05T03:01:09.370Z,10.80
2019-02-05T03:03:39.129Z,9.27
2019-02-05T03:06:08.803Z,10.00
2019-02-05T03:08:38.503Z,9.50
2019-02-05T03:11:08.327Z,16.33
2019-02-05T03:13:38.255Z,10.83
2019-02-05T03:16:07.983Z,15.33
2019-02-05T03:18:37.583Z,15.13
2019-02-05T03:21:07.251Z,12.17
2019-02-05T03:23:36.849Z,13.27
2019-02-05T03:26:06.468Z,10.03
2019-02-05T03:28:36.090Z,10.70
2019-02-05T03:31:06.453Z,11.57
2019-02-05T03:33:36.143Z,13.30
2019-02-05T03:36:05.974Z,13.93
2019-02-05T03:38:35.579Z,12.77
2019-02-05T03:41:06.363Z,13.97
2019-02-05T03:43:37.332Z,16.07
2019-02-05T03:46:09.454Z,15.07
2019-02-05T03:48:40.143Z,16.40
2019-02-05T03:51:38.874Z,17.97
2019-02-05T03:55:04.740Z,15.27
2019-02-05T03:58:12.961Z,16.37
2019-02-05T04:01:11.631Z,16.17
2019-02-05T04:03:54.901Z,15.73
2019-02-05T04:06:53.025Z,14.50
2019-02-05T04:10:06.167Z,14.43
2019-02-05T04:13:21.663Z,15.70
2019-02-05T04:16:27.462Z,20.00
2019-02-05T04:19:32.199Z,14.80
2019-02-05T04:22:30.555Z,15.13
2019-02-05T04:25:28.261Z,14.90
2019-02-05T04:28:31.668Z,14.27
2019-02-05T04:31:34.194Z,14.83
2019-02-05T04:34:48.227Z,15.10
2019-02-05T04:38:08.255Z,14.17
2019-02-05T04:41:06.156Z,15.57
2019-02-05T04:43:57.195Z,13.27
2019-02-05T04:47:01.859Z,13.37
2019-02-05T04:50:13.004Z,15.73
2019-02-05T04:53:23.083Z,15.23
2019-02-05T04:56:37.303Z,11.47
2019-02-05T04:59:38.563Z,16.77
2019-02-05T05:02:48.455Z,12.77
2019-02-05T05:05:57.645Z,11.67
2019-02-05T05:09:15.276Z,14.40
2019-02-05T05:11:44.996Z,11.57
2019-02-05T05:14:14.764Z,13.27
2019-02-05T05:16:45.275Z,15.70
2019-02-05T05:19:15.194Z,15.17
2019-02-05T05:21:45.342Z,15.03
2019-02-05T05:24:15.552Z,15.40
2019-02-05T05:26:45.486Z,17.33
2019-02-05T05:29:15.345Z,17.60
2019-02-05T05:31:45.192Z,15.83
2019-02-05T05:34:14.910Z,14.90
2019-02-05T05:36:50.029Z,18.23
2019-02-05T05:39:20.616Z,11.80
2019-02-05T05:41:50.379Z,16.90
2019-02-05T05:44:20.390Z,15.17
2019-02-05T05:46:50.147Z,17.87
2019-02-05T05:49:20.268Z,15.40
2019-02-05T05:51:49.864Z,15.30
2019-02-05T05:54:19.503Z,18.43
2019-02-05T05:56:49.135Z,15.47
2019-02-05T05:59:18.850Z,13.17
2019-02-05T06:01:48.446Z,16.80
2019-02-05T06:04:18.075Z,16.17
2019-02-05T06:06:47.723Z,14.00
2019-02-05T06:09:17.334Z,15.20
2019-02-05T06:11:47.021Z,15.93
2019-02-05T06:14:16.645Z,15.60
2019-02-05T06:16:46.328Z,15.23
2019-02-05T06:19:16.051Z,16.40
2019-02-05T06:21:46.345Z,15.60
2019-02-05T06:24:15.967Z,14.80
2019-02-05T06:26:45.631Z,19.70
2019-02-05T06:29:15.375Z,17.87
2019-02-05T06:31:45.224Z,18.07
2019-02-05T06:34:14.853Z,18.57
2019-02-05T06:36:44.935Z,17.50
2019-02-05T06:39:14.799Z,15.40
2019-02-05T06:41:44.787Z,19.10
2019-02-05T06:44:14.463Z,17.73
2019-02-05T06:46:44.163Z,19.63
2019-02-05T06:49:13.887Z,19.00
2019-02-05T06:51:43.980Z,20.97
2019-02-05T06:54:13.603Z,18.20
2019-02-05T06:56:43.211Z,21.30
2019-02-05T06:59:14.191Z,22.57
2019-02-05T07:01:43.847Z,20.17
2019-02-05T07:04:13.470Z,18.80
2019-02-05T07:06:43.503Z,19.30
2019-02-05T07:09:13.490Z,23.40
2019-02-05T07:11:43.320Z,20.00
2019-02-05T07:14:13.002Z,20.90
2019-02-05T07:16:42.646Z,18.80
2019-02-05T07:19:12.284Z,15.30
2019-02-05T07:21:42.364Z,18.00
2019-02-05T07:24:12.224Z,21.90
2019-02-05T07:26:41.806Z,20.30
2019-02-05T07:29:11.682Z,21.23
2019-02-05T07:31:41.347Z,20.60
2019-02-05T07:34:11.118Z,19.57
2019-02-05T07:36:40.809Z,17.20
2019-02-05T07:39:10.779Z,18.20
2019-02-05T07:41:40.594Z,16.90
2019-02-05T07:44:10.375Z,21.63
2019-02-05T07:46:40.124Z,26.53
2019-02-05T07:49:09.918Z,23.03
2019-02-05T07:51:39.915Z,16.30
2019-02-05T07:54:09.851Z,15.20
2019-02-05T07:56:39.627Z,16.63
2019-02-05T07:59:10.497Z,20.70
2019-02-05T08:01:40.499Z,24.67
2019-02-05T08:04:10.178Z,19.33
2019-02-05T08:06:40.347Z,22.57
2019-02-05T08:09:11.105Z,19.13
2019-02-05T08:11:41.554Z,20.77
2019-02-05T08:14:12.506Z,18.80
2019-02-05T08:16:42.160Z,25.43
2019-02-05T08:19:11.952Z,23.73
2019-02-05T08:21:41.638Z,20.27
2019-02-05T08:24:11.347Z,23.93
2019-02-05T08:26:41.152Z,22.20
2019-02-05T08:29:21.434Z,23.17
2019-02-05T08:31:42.574Z,18.83
2019-02-05T08:34:13.051Z,22.53
2019-02-05T08:36:42.708Z,21.83
2019-02-05T08:39:12.423Z,19.30
2019-02-05T08:41:42.336Z,23.50
2019-02-05T08:44:12.923Z,23.37
2019-02-05T08:46:42.616Z,20.00
2019-02-05T08:49:12.329Z,21.70
2019-02-05T08:51:41.951Z,16.27
2019-02-05T08:54:11.653Z,23.13
2019-02-05T08:56:41.414Z,20.20
2019-02-05T08:59:11.780Z,20.10
2019-02-05T09:01:42.661Z,21.90
2019-02-05T09:04:12.435Z,28.80
2019-02-05T09:06:42.179Z,32.30
2019-02-05T09:09:12.243Z,24.20
2019-02-05T09:11:41.880Z,24.67
2019-02-05T09:14:11.776Z,24.70
2019-02-05T09:16:43.079Z,26.43
2019-02-05T09:19:12.943Z,26.90
2019-02-05T09:21:43.084Z,29.27
2019-02-05T09:24:12.768Z,23.50
2019-02-05T09:26:42.835Z,25.13
2019-02-05T09:29:12.454Z,25.63
2019-02-05T09:31:42.559Z,25.83
2019-02-05T09:34:12.579Z,43.63
2019-02-05T09:36:42.280Z,24.13
2019-02-05T09:39:12.064Z,24.40
2019-02-05T09:41:41.798Z,25.37
2019-02-05T09:44:11.551Z,24.97
2019-02-05T09:46:41.335Z,24.53
2019-02-05T09:49:11.027Z,28.17
2019-02-05T09:51:40.932Z,25.77
2019-02-05T09:54:10.873Z,25.60
2019-02-05T09:56:40.576Z,26.47
2019-02-05T09:59:10.274Z,26.50
2019-02-05T10:01:39.979Z,26.37
2019-02-05T10:04:09.971Z,26.40
2019-02-05T10:06:39.784Z,36.03
2019-02-05T10:09:09.643Z,23.93
2019-02-05T10:11:39.321Z,26.17
2019-02-05T10:14:09.027Z,22.53
2019-02-05T10:16:38.767Z,24.60
2019-02-05T10:19:08.766Z,24.40
2019-02-05T10:21:38.469Z,22.80
2019-02-05T10:24:08.527Z,28.57
2019-02-05T10:26:38.129Z,23.50
2019-02-05T10:29:07.828Z,22.53
2019-02-05T10:31:37.592Z,22.10
2019-02-05T10:34:07.355Z,22.00
2019-02-05T10:36:37.213Z,20.10
2019-02-05T10:39:09.396Z,22.50
2019-02-05T10:41:39.461Z,23.37
2019-02-05T10:44:09.322Z,22.77
2019-02-05T10:46:39.182Z,20.03
2019-02-05T10:49:08.937Z,21.20
2019-02-05T10:51:38.851Z,24.73
2019-02-05T10:54:08.595Z,19.87
2019-02-05T10:56:38.191Z,17.57
2019-02-05T10:59:07.958Z,21.37
2019-02-05T11:01:38.054Z,23.63
2019-02-05T11:04:07.671Z,20.13
2019-02-05T11:06:37.550Z,18.83
2019-02-05T11:09:09.936Z,20.60
2019-02-05T11:11:39.835Z,20.27
2019-02-05T11:14:09.636Z,21.47
2019-02-05T11:16:39.348Z,19.80
2019-02-05T11:19:09.041Z,23.47
2019-02-05T11:21:38.932Z,20.90
2019-02-05T11:24:08.716Z,20.53
2019-02-05T11:26:38.463Z,20.10
2019-02-05T11:29:08.091Z,21.97
2019-02-05T11:31:38.835Z,19.73
2019-02-05T11:34:08.463Z,20.07
2019-02-05T11:36:37.992Z,20.57
2019-02-05T11:39:13.298Z,21.50
2019-02-05T11:41:42.960Z,22.40
2019-02-05T11:44:12.691Z,23.73
2019-02-05T11:46:42.364Z,18.80
2019-02-05T11:49:11.996Z,21.33
2019-02-05T11:51:42.542Z,22.37
2019-02-05T11:54:12.316Z,17.30
2019-02-05T11:56:42.136Z,21.20
2019-02-05T11:59:11.827Z,19.07
2019-02-05T12:01:41.521Z,19.50
2019-02-05T12:04:11.240Z,18.10
2019-02-05T12:06:40.851Z,21.63
2019-02-05T12:09:23.047Z,26.10
2019-02-05T12:11:52.743Z,20.53
2019-02-05T12:14:22.508Z,20.10
2019-02-05T12:16:52.266Z,21.17
2019-02-05T12:19:22.047Z,19.07
2019-02-05T12:21:52.091Z,25.87
2019-02-05T12:24:21.699Z,18.33
2019-02-05T12:26:51.403Z,21.53
2019-02-05T12:29:21.207Z,21.07
2019-02-05T12:31:50.860Z,23.47
2019-02-05T12:34:20.647Z,24.20
2019-02-05T12:36:50.360Z,21.53
2019-02-05T12:39:20.282Z,22.70
2019-02-05T12:41:49.971Z,24.17
2019-02-05T12:44:19.689Z,18.30
2019-02-05T12:46:49.401Z,25.13
2019-02-05T12:49:19.143Z,20.87
2019-02-05T12:51:49.093Z,23.47
2019-02-05T12:54:18.705Z,20.03
2019-02-05T12:56:48.560Z,24.13
2019-02-05T12:59:18.569Z,23.37
2019-02-05T13:01:48.192Z,22.97
2019-02-05T13:04:17.826Z,17.80
2019-02-05T13:06:47.527Z,21.93
2019-02-05T13:09:17.177Z,24.00
2019-02-05T13:11:46.941Z,24.80
2019-02-05T13:14:16.556Z,23.73
2019-02-05T13:16:46.248Z,21.33
2019-02-05T13:19:15.835Z,23.57
2019-02-05T13:21:46.532Z,20.63
2019-02-05T13:24:16.813Z,23.70
2019-02-05T13:26:46.626Z,20.30
2019-02-05T13:29:16.510Z,22.13
2019-02-05T13:31:46.246Z,23.07
2019-02-05T13:34:15.910Z,28.10
2019-02-05T13:36:45.712Z,17.67
2019-02-05T13:39:16.407Z,17.27
2019-02-05T13:41:46.051Z,19.37
2019-02-05T13:44:15.646Z,17.57
2019-02-05T13:46:45.268Z,19.73
2019-02-05T13:49:14.957Z,22.43
2019-02-05T13:51:44.583Z,28.50
2019-02-05T13:54:14.172Z,18.37
2019-02-05T13:56:43.811Z,21.20
2019-02-05T13:59:13.422Z,20.67
2019-02-05T14:01:44.651Z,27.27
2019-02-05T14:04:14.699Z,18.67
2019-02-05T14:06:44.317Z,16.70
2019-02-05T14:09:14.357Z,17.70
2019-02-05T14:11:44.147Z,21.67
2019-02-05T14:14:14.054Z,16.33
2019-02-05T14:16:43.690Z,18.07
2019-02-05T14:19:13.650Z,21.70
2019-02-05T14:21:43.293Z,17.20
2019-02-05T14:24:12.918Z,19.63
2019-02-05T14:26:42.540Z,19.07
2019-02-05T14:29:12.513Z,15.50
2019-02-05T14:31:42.542Z,84.20
2019-02-05T14:34:13.278Z,19.40
2019-02-05T14:36:43.315Z,15.40
2019-02-05T14:39:13.003Z,20.93
2019-02-05T14:41:42.646Z,16.87
2019-02-05T14:44:12.262Z,18.53
2019-02-05T14:46:41.887Z,16.00
2019-02-05T14:49:11.853Z,17.67
2019-02-05T14:51:41.577Z,15.67
2019-02-05T14:54:11.160Z,20.73
2019-02-05T14:56:40.771Z,14.07
2019-02-05T14:59:10.703Z,20.30
2019-02-05T15:01:43.068Z,16.77
2019-02-05T15:04:11.619Z,18.43
2019-02-05T15:06:41.275Z,24.73
2019-02-05T15:09:11.167Z,17.93
2019-02-05T15:11:40.853Z,18.93
2019-02-05T15:14:11.700Z,15.80
2019-02-05T15:16:41.723Z,26.10
2019-02-05T15:19:11.366Z,18.20
2019-02-05T15:21:40.988Z,18.00
2019-02-05T15:24:10.671Z,23.20
2019-02-05T15:26:40.323Z,26.90
2019-02-05T15:29:09.983Z,28.53
2019-02-05T15:31:39.798Z,18.03
2019-02-05T15:34:27.135Z,22.17
2019-02-05T15:36:56.802Z,18.10
2019-02-05T15:39:26.432Z,22.10
2019-02-05T15:41:56.410Z,18.23
2019-02-05T15:44:26.056Z,18.00
2019-02-05T15:46:55.786Z,20.90
2019-02-05T15:49:27.117Z,25.50
2019-02-05T15:51:57.324Z,18.37
2019-02-05T15:54:26.943Z,17.20
2019-02-05T15:56:56.537Z,18.50
2019-02-05T15:59:26.163Z,21.43
2019-02-05T16:02:05.921Z,18.50
2019-02-05T16:04:27.195Z,21.40
2019-02-05T16:06:56.836Z,17.93
2019-02-05T16:09:26.488Z,21.73
2019-02-05T16:11:56.171Z,19.60
2019-02-05T16:14:25.837Z,16.80
2019-02-05T16:16:55.543Z,18.30
2019-02-05T16:19:25.555Z,20.53
2019-02-05T16:21:55.161Z,20.33
2019-02-05T16:24:24.763Z,19.50
2019-02-05T16:26:54.401Z,20.90
2019-02-05T16:29:24.295Z,21.00
2019-02-05T16:31:53.973Z,18.80
2019-02-05T16:34:23.601Z,24.53
2019-02-05T16:36:53.255Z,19.33
2019-02-05T16:39:22.875Z,19.60
2019-02-05T16:41:52.535Z,19.33
2019-02-05T16:44:22.143Z,24.20
2019-02-05T16:46:51.743Z,20.60
2019-02-05T16:49:22.478Z,23.50
2019-02-05T16:51:52.430Z,20.77
2019-02-05T16:54:22.607Z,22.13
2019-02-05T16:56:52.258Z,20.83
2019-02-05T16:59:21.878Z,23.07
2019-02-05T17:01:51.511Z,19.40
2019-02-05T17:04:21.107Z,23.10
2019-02-05T17:06:50.745Z,22.80
2019-02-05T17:09:20.799Z,22.33
2019-02-05T17:11:50.431Z,18.20
2019-02-05T17:14:20.035Z,20.67
2019-02-05T17:16:49.667Z,17.13
2019-02-05T17:19:19.274Z,24.90
2019-02-05T17:21:48.915Z,26.00
2019-02-05T17:24:18.811Z,22.60
2019-02-05T17:26:48.445Z,23.63
2019-02-05T17:29:18.088Z,26.70
2019-02-05T17:31:47.727Z,22.53
2019-02-05T17:34:17.433Z,23.13
2019-02-05T17:36:47.147Z,23.90
2019-02-05T17:39:16.807Z,25.90
2019-02-05T17:41:46.883Z,24.43
2019-02-05T17:44:16.516Z,27.47
2019-02-05T17:46:46.260Z,24.30
2019-02-05T17:49:16.147Z,25.70
2019-02-05T17:51:45.763Z,25.10
2019-02-05T17:54:16.480Z,29.63
2019-02-05T17:56:46.091Z,29.13
2019-02-05T17:59:15.695Z,27.37
2019-02-05T18:01:45.347Z,26.30
2019-02-05T18:04:35.264Z,22.10
2019-02-05T18:07:05.282Z,22.80
2019-02-05T18:09:34.927Z,25.10
2019-02-05T18:12:05.119Z,29.63
2019-02-05T18:14:34.737Z,28.57
2019-02-05T18:17:04.751Z,29.03
2019-02-05T18:19:34.405Z,28.50
2019-02-05T18:22:04.174Z,29.47
2019-02-05T18:24:34.090Z,36.57
2019-02-05T18:27:03.800Z,25.63
2019-02-05T18:29:34.470Z,28.57
2019-02-05T18:32:05.720Z,29.47
2019-02-05T18:34:35.720Z,31.10
2019-02-05T18:37:05.482Z,30.53
2019-02-05T18:39:35.136Z,34.27
2019-02-05T18:42:04.995Z,30.73
2019-02-05T18:44:34.670Z,31.43
2019-02-05T18:47:04.459Z,28.43
2019-02-05T18:49:34.095Z,36.87
2019-02-05T18:52:03.923Z,28.90
2019-02-05T18:54:33.569Z,33.20
2019-02-05T18:57:03.267Z,32.37
2019-02-05T18:59:32.927Z,33.03
2019-02-05T19:02:02.721Z,30.30
2019-02-05T19:04:32.472Z,36.50
2019-02-05T19:07:03.821Z,34.00
2019-02-05T19:09:33.439Z,34.20
2019-02-05T19:12:04.953Z,31.70
2019-02-05T19:14:34.323Z,36.67
2019-02-05T19:17:04.032Z,34.30
2019-02-05T19:19:34.450Z,30.43
2019-02-05T19:22:04.367Z,33.43
2019-02-05T19:24:49.691Z,31.97
2019-02-05T19:27:19.827Z,41.60
2019-02-05T19:29:49.468Z,35.30
2019-02-05T19:32:23.204Z,40.30
2019-02-05T19:34:52.790Z,35.97
2019-02-05T19:37:22.491Z,37.83
2019-02-05T19:39:52.612Z,37.80
2019-02-05T19:42:22.316Z,37.70
2019-02-05T19:44:59.724Z,40.87
2019-02-05T19:47:32.500Z,37.67
2019-02-05T19:50:02.971Z,34.97
2019-02-05T19:52:33.006Z,41.20
2019-02-05T19:55:02.629Z,33.07
2019-02-05T19:57:32.670Z,36.00
2019-02-05T20:00:02.851Z,39.70
2019-02-05T20:02:34.091Z,34.63
2019-02-05T20:05:04.397Z,36.50
2019-02-05T20:07:36.273Z,35.73
2019-02-05T20:10:06.531Z,41.13
2019-02-05T20:12:37.120Z,34.20
2019-02-05T20:15:08.288Z,36.67
2019-02-05T20:17:37.915Z,35.77
2019-02-05T20:20:09.355Z,39.60
2019-02-05T20:22:39.034Z,44.80
2019-02-05T20:25:10.309Z,40.13
2019-02-05T20:27:40.049Z,34.97
2019-02-05T20:30:12.346Z,42.77
2019-02-05T20:32:41.981Z,41.17
2019-02-05T20:35:11.747Z,38.40
2019-02-05T20:37:41.470Z,41.03
2019-02-05T20:40:13.917Z,37.57
2019-02-05T20:42:43.612Z,36.70
2019-02-05T20:45:13.580Z,39.43
2019-02-05T20:47:43.330Z,38.20
2019-02-05T20:50:14.415Z,37.70
2019-02-05T20:52:44.115Z,37.13
2019-02-05T20:55:14.913Z,37.80
2019-02-05T20:57:44.695Z,34.90
2019-02-05T21:00:17.309Z,42.50
2019-02-05T21:02:47.042Z,39.83
2019-02-05T21:05:17.771Z,38.53
2019-02-05T21:07:47.664Z,33.90
2019-02-05T21:10:20.059Z,34.53
2019-02-05T21:12:49.931Z,39.47
2019-02-05T21:15:20.864Z,28.90
2019-02-05T21:17:50.660Z,37.27
2019-02-05T21:20:28.743Z,38.53
2019-02-05T21:22:52.538Z,36.53
2019-02-05T21:25:23.258Z,37.20
2019-02-05T21:27:52.960Z,36.43
2019-02-05T21:30:22.729Z,37.13
2019-02-05T21:32:52.870Z,43.63
2019-02-05T21:35:22.739Z,36.53
2019-02-05T21:37:52.351Z,38.27
2019-02-05T21:40:22.390Z,32.27
2019-02-05T21:42:52.462Z,37.27
2019-02-05T21:45:24.010Z,37.20
2019-02-05T21:47:53.697Z,37.80
2019-02-05T21:50:24.675Z,35.70
2019-02-05T21:52:54.409Z,36.17
2019-02-05T21:55:25.153Z,38.00
2019-02-05T21:57:56.024Z,39.33
2019-02-05T22:00:27.936Z,39.03
2019-02-05T22:02:58.013Z,42.67
2019-02-05T22:05:34.927Z,38.50
2019-02-05T22:08:05.311Z,41.57
2019-02-05T22:10:36.614Z,44.40
2019-02-05T22:13:07.255Z,42.97
2019-02-05T22:15:37.025Z,36.03
2019-02-05T22:18:06.701Z,47.60
2019-02-05T22:20:36.403Z,35.63
2019-02-05T22:23:06.464Z,36.23
2019-02-05T22:25:36.156Z,37.90
2019-02-05T22:28:05.958Z,42.83
2019-02-05T22:30:47.679Z,39.17
2019-02-05T22:33:17.360Z,41.40
2019-02-05T22:35:46.990Z,42.97
2019-02-05T22:38:16.613Z,38.67
2019-02-05T22:40:46.402Z,46.40
2019-02-05T22:43:16.786Z,39.60
2019-02-05T22:45:46.634Z,44.87
2019-02-05T22:48:16.318Z,36.43
2019-02-05T22:50:45.938Z,39.17
2019-02-05T22:53:15.615Z,42.50
2019-02-05T22:55:45.294Z,44.97
2019-02-05T22:58:14.990Z,39.50
2019-02-05T23:01:17.488Z,42.23
2019-02-05T23:03:52.065Z,38.23
2019-02-05T23:06:38.902Z,35.23
2019-02-05T23:09:21.575Z,40.73
2019-02-05T23:12:28.282Z,46.17
2019-02-05T23:15:06.663Z,37.20
2019-02-05T23:17:36.342Z,37.50
2019-02-05T23:20:09.064Z,37.00
2019-02-05T23:22:38.773Z,40.07
2019-02-05T23:25:10.127Z,39.37
2019-02-05T23:27:39.998Z,39.00
2019-02-05T23:30:29.413Z,41.80
2019-02-05T23:33:00.347Z,39.47
2019-02-05T23:35:32.494Z,39.20
2019-02-05T23:38:01.715Z,37.70
2019-02-05T23:40:31.327Z,39.27
2019-02-05T23:43:00.939Z,41.83
2019-02-05T23:45:30.855Z,33.87
2019-02-05T23:48:00.501Z,32.90
2019-02-05T23:50:30.110Z,42.53
2019-02-05T23:52:59.711Z,37.87
2019-02-05T23:55:29.323Z,37.67
2019-02-05T23:57:59.186Z,36.50
